Biddle, Montana
Current Conditions -  °F | °C
As of 4:53 PM on Friday 21 Nov 2014 (Local Time) from KGCC Reporting Station
Clear Clear  
Wind Chill: 32°   Ceiling: Unl
Heat Index: 32°   Visibility: 10mi
Dew Point: 26°   Wind: 0mph
Humidity: 79%   Direction: NA
Pressure: 29.84"   Gusts: NA
Location:  45.1°N, 105.35°W
Report Text: KGCC 212353Z AUTO 00000KT 10SM CLR 00/M03 A2984 RMK AO2 SLP138 T00001033 10072 20000 53002
Loading
Personal Weather Stations






























Interactive Weather Map New forecast layout! Learn more

10-Day Weather Forecast

Advertisements
Track Severe Weather on mobile